Stations météo

réclame
Mon MeteoGroup
Langdon Bay, Grande-Bretagne (3796): Température de l'air & dewpoint: 15.07.2019 16:00:00 - 21.07.2019 16:00:00 (BST)Langdon Bay, Grande-Bretagne (3796): Vitesse du vent & gusts: 15.07.2019 16:00:00 - 21.07.2019 16:00:00 (BST)Langdon Bay, Grande-Bretagne (3796): Direction du vent: 15.07.2019 16:00:00 - 21.07.2019 16:00:00 (BST)Langdon Bay, Grande-Bretagne (3796): reduced air pressure: 15.07.2019 16:00:00 - 21.07.2019 16:00:00 (BST)
Date & Time tt [°C] td [°C] ff [km/h] ff [knt] fx [km/h] fx [knt] dd ppp [hPa]
21.07.2019 16:00:00 18,4 14,4 22 12 - - WSW 1022,2
21.07.2019 15:00:00 19,1 13,8 18 10 - - SW 1022,5
21.07.2019 14:00:00 19,1 15,5 21 11 - - SW 1022,5
21.07.2019 13:00:00 18,8 14,8 16 9 - - SW 1022,3
21.07.2019 12:00:00 18,2 14,8 15 8 - - SW 1022,1
21.07.2019 11:00:00 18,8 13,4 15 8 - - SW 1021,6
21.07.2019 10:00:00 18,3 13,6 11 6 - - SSW 1021,2
21.07.2019 09:00:00 18,1 11,9 8 4 - - WNW 1020,7
21.07.2019 08:00:00 17,4 12,3 13 7 - - WNW 1020,2
21.07.2019 07:00:00 15,0 12,2 18 10 - - NW 1019,5
21.07.2019 06:00:00 14,8 12,0 22 12 - - NW 1018,8
21.07.2019 05:00:00 14,6 12,0 24 13 - - NW 1017,9
21.07.2019 04:00:00 14,4 12,2 18 10 - - WNW 1017,8
21.07.2019 03:00:00 14,4 12,1 16 9 - - WNW 1016,9
21.07.2019 02:00:00 15,1 12,0 16 9 - - WNW 1016,5
21.07.2019 01:00:00 15,4 13,2 16 9 - - WNW 1016,0
21.07.2019 00:00:00 15,4 14,2 15 8 - - W 1015,6
20.07.2019 23:00:00 15,9 14,3 18 10 - - W 1014,9
20.07.2019 22:00:00 16,1 13,8 16 9 - - W 1014,3
20.07.2019 21:00:00 16,9 13,8 18 10 - - WSW 1013,4
20.07.2019 20:00:00 17,3 15,1 28 15 - - WSW 1012,5
20.07.2019 19:00:00 18,2 15,4 26 14 46 25 WSW 1011,7
20.07.2019 18:00:00 18,4 15,8 24 13 54 29 WSW 1011,1
20.07.2019 17:00:00 18,5 15,6 31 17 54 29 WSW 1010,5
20.07.2019 16:00:00 18,5 15,7 28 15 50 27 SW 1010,1
20.07.2019 15:00:00 19,0 16,6 28 15 50 27 WSW 1009,7
20.07.2019 14:00:00 18,2 16,6 24 13 - - SW 1009,4
20.07.2019 13:00:00 17,5 17,1 22 12 - - SW 1009,0
20.07.2019 12:00:00 17,1 16,9 21 11 46 25 SW 1008,5
20.07.2019 11:00:00 17,4 17,3 22 12 50 27 SW 1007,9
20.07.2019 10:00:00 17,1 17,1 24 13 - - SSW 1007,9
20.07.2019 09:00:00 16,7 16,6 15 8 - - SW 1007,9
20.07.2019 08:00:00 16,6 16,5 18 10 - - SSW 1007,8
20.07.2019 07:00:00 16,3 16,3 13 7 - - SW 1007,5
20.07.2019 06:00:00 16,3 16,3 16 9 - - WSW 1007,3
20.07.2019 05:00:00 16,7 16,7 16 9 - - SSW 1007,7
20.07.2019 04:00:00 16,8 16,7 18 10 55 30 WSW 1008,7
20.07.2019 03:00:00 16,5 16,4 8 4 - - WSW 1008,3
20.07.2019 02:00:00 16,9 16,5 24 13 50 27 WSW 1009,7
20.07.2019 01:00:00 16,6 16,6 13 7 - - S 1008,9
20.07.2019 00:00:00 16,8 16,7 11 6 - - SSW 1009,7
19.07.2019 23:00:00 17,1 17,1 11 6 - - SW 1010,5
19.07.2019 22:00:00 17,1 17,0 15 8 - - SW 1011,2
19.07.2019 21:00:00 17,5 15,7 22 12 - - WSW 1011,2
19.07.2019 20:00:00 17,5 15,6 22 12 - - WSW 1011,2
19.07.2019 19:00:00 17,5 15,5 15 8 - - WSW 1011,6
19.07.2019 18:00:00 17,7 15,0 16 9 - - SW 1011,8
19.07.2019 17:00:00 17,4 14,6 18 10 - - SW 1012,6
19.07.2019 16:00:00 17,4 14,9 21 11 - - SW 1012,8
19.07.2019 15:00:00 18,0 14,4 22 12 - - SSW 1013,0
19.07.2019 14:00:00 17,6 14,8 24 13 - - SSW 1013,4
19.07.2019 13:00:00 17,4 14,5 22 12 - - SW 1013,4
19.07.2019 12:00:00 18,1 14,8 24 13 - - SW 1013,5
19.07.2019 11:00:00 17,4 15,3 18 10 - - SW 1013,6
19.07.2019 10:00:00 16,2 14,8 16 9 - - SSW 1013,7
19.07.2019 09:00:00 16,6 14,4 11 6 - - SW 1013,9
19.07.2019 08:00:00 16,5 10,4 15 8 - - WSW 1014,0
19.07.2019 07:00:00 15,5 11,1 11 6 - - WSW 1013,6
19.07.2019 06:00:00 14,6 8,2 16 9 - - NW 1013,1
19.07.2019 05:00:00 14,3 8,2 21 11 - - WNW 1013,1
19.07.2019 04:00:00 14,5 9,4 22 12 - - WNW 1013,0
19.07.2019 03:00:00 14,9 9,7 24 13 - - WNW 1012,9
19.07.2019 02:00:00 15,4 10,5 22 12 - - WNW 1012,9
19.07.2019 01:00:00 15,9 11,5 22 12 - - WNW 1012,7
19.07.2019 00:00:00 16,0 12,6 21 11 - - WNW 1012,3
18.07.2019 23:00:00 16,1 12,9 21 11 - - W 1012,3
18.07.2019 22:00:00 16,1 13,3 16 9 - - W 1012,2
18.07.2019 21:00:00 16,6 14,2 13 7 - - W 1011,9
18.07.2019 20:00:00 17,0 16,0 16 9 - - WSW 1011,4
18.07.2019 19:00:00 17,4 15,6 22 12 - - WSW 1011,2
18.07.2019 18:00:00 17,5 15,5 21 11 - - WSW 1011,0
18.07.2019 17:00:00 17,9 16,0 18 10 46 25 WSW 1010,8
18.07.2019 16:00:00 18,0 16,6 28 15 - - WSW 1010,8
18.07.2019 15:00:00 17,5 16,8 15 8 - - WSW 1011,0
18.07.2019 14:00:00 17,2 17,1 26 14 - - WSW 1010,4
18.07.2019 13:00:00 16,2 16,2 22 12 46 25 SW 1010,1
18.07.2019 12:00:00 16,0 16,0 22 12 - - SW 1010,6
18.07.2019 11:00:00 15,9 15,8 26 14 - - SW 1010,5
18.07.2019 10:00:00 16,3 15,0 22 12 - - SW 1010,7
18.07.2019 09:00:00 17,0 15,6 18 10 - - SW 1010,7
18.07.2019 08:00:00 16,9 16,2 24 13 - - WSW 1010,7
18.07.2019 07:00:00 16,5 15,6 16 9 - - WSW 1010,7
18.07.2019 06:00:00 15,3 15,0 16 9 - - WSW 1010,8
18.07.2019 05:00:00 15,3 14,6 16 9 - - WSW 1010,8
18.07.2019 04:00:00 15,5 14,8 16 9 - - WSW 1010,9
18.07.2019 03:00:00 15,3 14,3 16 9 - - WSW 1011,3
18.07.2019 02:00:00 14,9 13,4 15 8 - - WSW 1011,7
18.07.2019 01:00:00 15,1 12,7 18 10 - - WSW 1012,1
18.07.2019 00:00:00 16,1 14,5 15 8 - - WSW 1012,2
17.07.2019 23:00:00 16,2 14,7 15 8 - - WSW 1012,4
17.07.2019 22:00:00 16,6 14,5 16 9 - - WSW 1012,6
17.07.2019 21:00:00 16,6 15,0 9 5 - - SW 1012,6
17.07.2019 20:00:00 16,9 13,9 15 8 - - WSW 1012,7
17.07.2019 19:00:00 17,7 14,3 11 6 - - SW 1013,2
17.07.2019 18:00:00 18,3 13,1 11 6 - - SW 1013,2
17.07.2019 17:00:00 19,8 11,7 13 7 - - WSW 1013,5
17.07.2019 16:00:00 20,9 11,7 11 6 - - SW 1014,0
17.07.2019 15:00:00 20,6 12,3 13 7 - - WSW 1014,4
17.07.2019 14:00:00 20,4 12,8 11 6 - - SW 1014,8
17.07.2019 13:00:00 19,8 11,2 11 6 - - SSW 1015,3
17.07.2019 12:00:00 19,5 12,4 8 4 - - S 1015,8
17.07.2019 11:00:00 18,5 14,3 8 4 - - SSW 1016,0
17.07.2019 10:00:00 18,1 14,9 8 4 - - S 1016,1
17.07.2019 09:00:00 17,5 15,2 5 3 - - SSE 1016,0
17.07.2019 08:00:00 17,8 14,2 5 3 - - SSE 1016,1
17.07.2019 07:00:00 16,2 11,9 5 3 - - SW 1016,2
17.07.2019 06:00:00 12,6 11,4 5 3 - - SW 1016,4
17.07.2019 05:00:00 11,7 9,8 2 1 - - W 1016,7
17.07.2019 04:00:00 12,9 9,7 5 3 - - NNW 1016,8
17.07.2019 03:00:00 12,9 9,7 11 6 - - NNW 1017,0
17.07.2019 02:00:00 13,2 10,5 5 3 - - ENE 1017,6
17.07.2019 01:00:00 13,7 11,0 5 3 - - E 1017,9
17.07.2019 00:00:00 13,2 10,6 4 2 - - S 1017,9
16.07.2019 23:00:00 13,2 10,4 2 1 - - SW 1018,1
16.07.2019 22:00:00 14,3 11,0 4 2 - - WSW 1018,2
16.07.2019 21:00:00 16,2 11,9 9 5 - - W 1018,0
16.07.2019 20:00:00 17,0 12,3 8 4 - - W 1018,2
16.07.2019 19:00:00 18,2 12,5 11 6 - - WSW 1018,3
16.07.2019 18:00:00 18,0 12,4 13 7 - - WSW 1018,4
16.07.2019 17:00:00 18,6 12,4 13 7 - - SW 1018,7
16.07.2019 16:00:00 19,1 11,6 13 7 - - SW 1019,2
16.07.2019 15:00:00 18,1 11,9 13 7 - - SSW 1019,5
16.07.2019 14:00:00 18,7 13,0 13 7 - - SSW 1019,7
16.07.2019 13:00:00 18,3 13,0 15 8 - - SSW 1019,9
16.07.2019 12:00:00 18,2 12,5 13 7 - - SSW 1019,9
16.07.2019 11:00:00 17,1 11,6 9 5 - - S 1020,2
16.07.2019 10:00:00 17,0 12,4 9 5 - - SW 1020,5
16.07.2019 09:00:00 15,9 11,2 5 3 - - SW 1020,9
16.07.2019 08:00:00 15,4 11,4 5 3 - - W 1020,9
16.07.2019 07:00:00 13,7 11,6 8 4 - - WNW 1020,8
16.07.2019 06:00:00 11,6 10,4 11 6 - - WNW 1020,7
16.07.2019 05:00:00 11,2 10,1 9 5 - - W 1020,6
16.07.2019 04:00:00 11,4 10,2 9 5 - - WNW 1020,8
16.07.2019 03:00:00 11,0 10,2 8 4 - - W 1021,0
16.07.2019 02:00:00 10,2 9,5 2 1 - - SSW 1021,3
16.07.2019 01:00:00 10,5 9,3 0 0 - - N 1021,7
16.07.2019 00:00:00 11,0 9,4 2 1 - - NE 1021,7
15.07.2019 23:00:00 12,5 9,6 9 5 - - ENE 1021,7
15.07.2019 22:00:00 14,2 10,5 13 7 - - ENE 1021,8
15.07.2019 21:00:00 14,6 10,7 13 7 - - ENE 1021,9
15.07.2019 20:00:00 15,3 10,9 13 7 - - ENE 1021,7
15.07.2019 19:00:00 15,9 11,3 18 10 - - ENE 1021,6
15.07.2019 18:00:00 16,9 12,1 22 12 - - ENE 1021,6
15.07.2019 17:00:00 17,0 11,9 22 12 - - ENE 1021,9
15.07.2019 16:00:00 17,0 12,1 18 10 - - ENE 1022,3

tt = Température de l'air
td = dewpoint
ff = Vitesse du vent
fx = gusts
dd = Direction du vent
ppp = reduced air pressure

stations d'obs. à proximité